createdAt,value
2022-09-13T00:02:02.414Z,13.63
2022-09-13T00:04:29.747Z,13.58
2022-09-13T00:06:57.050Z,13.42
2022-09-13T00:09:24.329Z,13.35
2022-09-13T00:11:52.416Z,13.31
2022-09-13T00:14:19.751Z,13.23
2022-09-13T00:16:47.041Z,13.23
2022-09-13T00:19:14.350Z,13.11
2022-09-13T00:21:41.677Z,13.04
2022-09-13T00:24:09.376Z,13.01
2022-09-13T00:26:36.710Z,12.99
2022-09-13T00:29:03.972Z,12.97
2022-09-13T00:31:31.315Z,12.85
2022-09-13T00:34:01.766Z,12.84
2022-09-13T00:36:29.469Z,12.86
2022-09-13T00:38:56.972Z,12.95
2022-09-13T00:41:24.417Z,12.98
2022-09-13T00:44:02.628Z,13.00
2022-09-13T00:46:41.899Z,12.97
2022-09-13T00:49:18.390Z,12.91
2022-09-13T00:51:51.308Z,12.91
2022-09-13T00:54:22.438Z,12.98
2022-09-13T00:56:58.045Z,12.99
2022-09-13T00:59:42.964Z,12.99
2022-09-13T01:02:10.899Z,12.93
2022-09-13T01:04:39.225Z,12.89
2022-09-13T01:07:12.679Z,12.80
2022-09-13T01:09:44.240Z,12.75
2022-09-13T01:12:26.635Z,12.73
2022-09-13T01:14:56.017Z,12.67
2022-09-13T01:17:23.583Z,12.64
2022-09-13T01:19:50.907Z,12.61
2022-09-13T01:22:24.193Z,12.54
2022-09-13T01:25:22.486Z,12.57
2022-09-13T01:28:27.459Z,12.53
2022-09-13T01:31:34.086Z,12.53
2022-09-13T01:34:23.421Z,12.54
2022-09-13T01:37:03.108Z,12.48
2022-09-13T01:39:54.039Z,12.55
2022-09-13T01:42:27.185Z,12.49
2022-09-13T01:45:06.655Z,12.49
2022-09-13T01:48:08.030Z,12.47
2022-09-13T01:51:04.014Z,12.52
2022-09-13T01:54:12.749Z,12.54
2022-09-13T01:57:09.402Z,12.58
2022-09-13T01:59:46.571Z,12.63
2022-09-13T02:02:23.314Z,12.65
2022-09-13T02:05:02.166Z,12.62
2022-09-13T02:07:43.563Z,12.57
2022-09-13T02:10:25.218Z,12.60
2022-09-13T02:12:56.031Z,12.60
2022-09-13T02:15:46.580Z,12.54
2022-09-13T02:18:28.562Z,12.57
2022-09-13T02:21:02.933Z,12.57
2022-09-13T02:23:36.904Z,12.53
2022-09-13T02:26:06.965Z,12.52
2022-09-13T02:28:41.402Z,12.53
2022-09-13T02:31:09.454Z,12.41
2022-09-13T02:33:52.037Z,12.41
2022-09-13T02:36:29.700Z,12.38
2022-09-13T02:39:12.137Z,12.35
2022-09-13T02:42:04.464Z,12.42
2022-09-13T02:44:49.879Z,12.43
2022-09-13T02:47:38.832Z,12.41
2022-09-13T02:50:10.365Z,12.45
2022-09-13T02:53:02.717Z,12.50
2022-09-13T02:55:50.746Z,12.51
2022-09-13T02:58:32.123Z,12.53
2022-09-13T03:00:59.497Z,12.53
2022-09-13T03:03:26.957Z,12.51
2022-09-13T03:05:54.707Z,12.47
2022-09-13T03:08:24.038Z,12.51
2022-09-13T03:11:28.034Z,12.53
2022-09-13T03:14:28.748Z,12.51
2022-09-13T03:17:16.811Z,12.47
2022-09-13T03:20:09.441Z,12.51
2022-09-13T03:22:47.120Z,12.50
2022-09-13T03:25:26.552Z,12.45
2022-09-13T03:28:05.522Z,12.41
2022-09-13T03:30:37.255Z,12.36
2022-09-13T03:33:12.624Z,12.38
2022-09-13T03:35:48.873Z,12.37
2022-09-13T03:38:33.565Z,12.35
2022-09-13T03:41:09.544Z,12.36
2022-09-13T03:43:45.984Z,12.35
2022-09-13T03:46:23.117Z,12.39
2022-09-13T03:48:51.479Z,12.42
2022-09-13T03:51:19.754Z,12.49
2022-09-13T03:53:54.343Z,12.51
2022-09-13T03:56:21.719Z,12.57
2022-09-13T03:58:50.093Z,12.64
2022-09-13T04:01:25.508Z,12.63
2022-09-13T04:03:56.543Z,12.44
2022-09-13T04:06:24.567Z,12.68
2022-09-13T04:08:51.915Z,12.67
2022-09-13T04:11:21.269Z,12.67
2022-09-13T04:13:48.739Z,12.64
2022-09-13T04:16:16.343Z,12.62
2022-09-13T04:18:43.791Z,12.62
2022-09-13T04:21:11.584Z,12.58
2022-09-13T04:23:38.899Z,12.57
2022-09-13T04:26:06.740Z,12.54
2022-09-13T04:28:34.117Z,12.53
2022-09-13T04:31:01.515Z,12.58
2022-09-13T04:33:28.988Z,12.60
2022-09-13T04:36:00.359Z,12.56
2022-09-13T04:38:28.096Z,12.55
2022-09-13T04:40:56.385Z,12.54
2022-09-13T04:43:24.306Z,12.57
2022-09-13T04:45:52.288Z,12.40
2022-09-13T04:48:19.731Z,12.55
2022-09-13T04:50:47.622Z,12.52
2022-09-13T04:53:15.036Z,12.59
2022-09-13T04:55:42.477Z,12.63
2022-09-13T04:58:09.816Z,12.59
2022-09-13T05:00:37.422Z,12.59
2022-09-13T05:03:04.774Z,12.57
2022-09-13T05:05:33.288Z,12.59
2022-09-13T05:08:00.697Z,12.68
2022-09-13T05:10:28.259Z,12.70
2022-09-13T05:12:55.694Z,12.76
2022-09-13T05:15:23.100Z,12.83
2022-09-13T05:17:50.366Z,12.90
2022-09-13T05:20:18.647Z,12.90
2022-09-13T05:22:46.003Z,13.02
2022-09-13T05:25:14.024Z,13.11
2022-09-13T05:27:41.395Z,13.21
2022-09-13T05:30:09.088Z,13.33
2022-09-13T05:32:36.409Z,13.43
2022-09-13T05:35:03.869Z,13.43
2022-09-13T05:37:31.150Z,13.46
2022-09-13T05:40:11.152Z,13.60
2022-09-13T05:42:39.565Z,13.62
2022-09-13T05:45:07.737Z,13.68
2022-09-13T05:47:35.265Z,13.72
2022-09-13T05:50:10.395Z,13.80
2022-09-13T05:52:39.345Z,13.81
2022-09-13T05:55:06.859Z,13.88
2022-09-13T05:57:34.273Z,14.00
2022-09-13T06:00:01.690Z,14.05
2022-09-13T06:02:29.177Z,14.08
2022-09-13T06:04:56.535Z,14.06
2022-09-13T06:07:23.935Z,14.04
2022-09-13T06:09:51.475Z,14.06
2022-09-13T06:12:18.843Z,14.10
2022-09-13T06:14:46.184Z,14.13
2022-09-13T06:17:13.591Z,14.21
2022-09-13T06:19:41.051Z,14.29
2022-09-13T06:22:08.318Z,14.41
2022-09-13T06:24:37.625Z,14.60
2022-09-13T06:27:05.980Z,14.81
2022-09-13T06:29:33.470Z,15.00
2022-09-13T06:32:00.772Z,15.24
2022-09-13T06:34:31.270Z,15.41
2022-09-13T06:36:59.093Z,15.49
2022-09-13T06:39:26.421Z,15.54
2022-09-13T06:41:53.761Z,15.53
2022-09-13T06:44:32.349Z,15.62
2022-09-13T06:46:59.714Z,15.70
2022-09-13T06:49:29.139Z,15.88
2022-09-13T06:51:56.504Z,16.07
2022-09-13T06:54:23.832Z,16.25
2022-09-13T06:56:51.163Z,16.40
2022-09-13T06:59:18.760Z,16.49
2022-09-13T07:01:46.723Z,16.60
2022-09-13T07:04:17.321Z,16.72
2022-09-13T07:06:47.703Z,16.83
2022-09-13T07:09:18.519Z,16.95
2022-09-13T07:11:47.111Z,17.06
2022-09-13T07:14:20.099Z,17.25
2022-09-13T07:16:47.709Z,17.34
2022-09-13T07:19:22.693Z,17.34
2022-09-13T07:21:50.779Z,17.47
2022-09-13T07:24:18.900Z,17.46
2022-09-13T07:26:46.857Z,17.44
2022-09-13T07:29:22.623Z,17.55
2022-09-13T07:31:53.171Z,17.61
2022-09-13T07:34:24.823Z,17.79
2022-09-13T07:36:52.827Z,17.88
2022-09-13T07:39:22.884Z,17.98
2022-09-13T07:41:51.542Z,18.06
2022-09-13T07:44:19.405Z,18.12
2022-09-13T07:46:46.785Z,18.12
2022-09-13T07:49:16.799Z,18.03
2022-09-13T07:51:45.437Z,17.90
2022-09-13T07:54:15.475Z,17.77
2022-09-13T07:56:43.614Z,17.65
2022-09-13T07:59:15.987Z,17.60
2022-09-13T08:01:44.931Z,17.50
2022-09-13T08:04:15.173Z,17.48
2022-09-13T08:06:43.615Z,17.32
2022-09-13T08:09:11.795Z,17.22
2022-09-13T08:11:43.797Z,17.13
2022-09-13T08:14:13.272Z,17.06
2022-09-13T08:16:41.215Z,16.95
2022-09-13T08:19:12.345Z,16.88
2022-09-13T08:21:41.994Z,16.82
2022-09-13T08:24:21.388Z,16.74
2022-09-13T08:26:49.034Z,16.72
2022-09-13T08:29:16.872Z,16.84
2022-09-13T08:31:45.060Z,16.99
2022-09-13T08:34:15.102Z,17.17
2022-09-13T08:36:43.211Z,17.32
2022-09-13T08:39:13.420Z,17.48
2022-09-13T08:41:42.007Z,17.60
2022-09-13T08:44:23.901Z,17.66
2022-09-13T08:46:52.793Z,17.63
2022-09-13T08:49:26.233Z,17.60
2022-09-13T08:52:16.738Z,17.55
2022-09-13T08:54:44.773Z,17.61
2022-09-13T08:57:35.922Z,17.72
2022-09-13T09:00:03.457Z,17.86
2022-09-13T09:02:30.966Z,17.96
2022-09-13T09:05:20.565Z,17.94
2022-09-13T09:08:00.407Z,17.95
2022-09-13T09:10:53.138Z,17.90
2022-09-13T09:13:56.779Z,17.90
2022-09-13T09:16:36.330Z,17.96
2022-09-13T09:19:35.175Z,18.04
2022-09-13T09:22:17.078Z,18.09
2022-09-13T09:24:49.351Z,18.11
2022-09-13T09:27:19.029Z,18.17
2022-09-13T09:29:51.019Z,18.14
2022-09-13T09:32:40.197Z,18.19
2022-09-13T09:35:21.631Z,18.29
2022-09-13T09:38:06.070Z,18.40
2022-09-13T09:40:36.428Z,18.54
2022-09-13T09:43:17.505Z,18.75
2022-09-13T09:45:46.969Z,19.01
2022-09-13T09:48:18.641Z,19.11
2022-09-13T09:50:51.527Z,19.30
2022-09-13T09:53:37.024Z,19.53
2022-09-13T09:56:24.076Z,19.82
2022-09-13T09:58:54.095Z,20.20
2022-09-13T10:01:32.645Z,20.62
2022-09-13T10:08:08.719Z,23.12
2022-09-13T10:10:42.558Z,23.98
2022-09-13T10:13:21.173Z,24.50
2022-09-13T10:15:58.070Z,24.52
2022-09-13T10:18:43.594Z,24.68
2022-09-13T10:21:24.856Z,24.82
2022-09-13T10:23:53.248Z,24.84
2022-09-13T10:26:28.960Z,24.75
2022-09-13T10:29:14.897Z,24.61
2022-09-13T10:31:45.394Z,24.24
2022-09-13T10:34:33.659Z,24.12
2022-09-13T10:37:14.750Z,24.20
2022-09-13T10:40:07.065Z,23.98
2022-09-13T10:42:35.362Z,24.06
2022-09-13T10:45:08.944Z,24.15
2022-09-13T10:47:55.979Z,24.28
2022-09-13T10:50:27.805Z,25.01
2022-09-13T10:53:00.263Z,25.98
2022-09-13T10:55:32.754Z,26.88
2022-09-13T10:58:03.109Z,27.58
2022-09-13T11:00:47.982Z,27.74
2022-09-13T11:03:29.241Z,28.63
2022-09-13T11:06:02.428Z,28.36
2022-09-13T11:08:56.696Z,28.49
2022-09-13T11:11:32.316Z,28.94
2022-09-13T11:14:02.561Z,29.18
2022-09-13T11:16:41.998Z,29.55
2022-09-13T11:19:28.125Z,29.87
2022-09-13T11:22:08.606Z,30.42
2022-09-13T11:24:54.053Z,30.52
2022-09-13T11:27:50.695Z,30.48
2022-09-13T11:30:29.687Z,28.52
2022-09-13T11:32:59.981Z,28.02
2022-09-13T11:35:44.744Z,27.45
2022-09-13T11:38:50.698Z,28.67
2022-09-13T11:41:59.349Z,29.49
2022-09-13T11:44:45.322Z,28.09
2022-09-13T11:47:56.704Z,28.75
2022-09-13T11:50:36.068Z,28.75
2022-09-13T11:53:45.833Z,26.58
2022-09-13T11:56:34.443Z,26.20
2022-09-13T11:59:43.190Z,25.23
2022-09-13T12:02:28.674Z,25.39
2022-09-13T12:05:30.440Z,25.42
2022-09-13T12:08:24.303Z,26.15
2022-09-13T12:11:02.547Z,26.84
2022-09-13T12:13:36.212Z,26.94
2022-09-13T12:16:16.142Z,26.11
2022-09-13T12:18:55.653Z,25.46
2022-09-13T12:21:31.315Z,25.30
2022-09-13T12:24:01.265Z,25.46
2022-09-13T12:27:01.335Z,25.55
2022-09-13T12:29:56.144Z,25.49
2022-09-13T12:32:23.811Z,25.54
2022-09-13T12:35:34.607Z,25.52
2022-09-13T12:38:43.450Z,25.18
2022-09-13T12:41:52.809Z,25.31
2022-09-13T12:45:06.073Z,25.29
2022-09-13T12:48:23.399Z,25.25
2022-09-13T12:51:07.967Z,25.02
2022-09-13T12:53:50.046Z,25.00
2022-09-13T12:56:23.566Z,24.53
2022-09-13T12:59:22.086Z,24.38
2022-09-13T13:01:52.186Z,24.14
2022-09-13T13:04:31.157Z,23.88
2022-09-13T13:07:04.981Z,24.31
2022-09-13T13:09:53.888Z,24.45
2022-09-13T13:12:36.671Z,24.18
2022-09-13T13:15:30.922Z,24.38
2022-09-13T13:17:57.968Z,24.46
2022-09-13T13:20:56.062Z,24.22
2022-09-13T13:23:29.822Z,24.27
2022-09-13T13:26:29.878Z,24.08
2022-09-13T13:29:03.574Z,24.25
2022-09-13T13:31:30.536Z,24.22
2022-09-13T13:34:24.100Z,23.99
2022-09-13T13:37:11.209Z,24.01
2022-09-13T13:39:40.603Z,23.87
2022-09-13T13:42:15.263Z,23.67
2022-09-13T13:44:42.561Z,23.53
2022-09-13T13:47:09.376Z,23.70
2022-09-13T13:49:39.137Z,23.63
2022-09-13T13:52:09.364Z,23.72
2022-09-13T13:54:42.262Z,23.66
2022-09-13T13:57:28.853Z,23.68
2022-09-13T14:00:25.408Z,23.83
2022-09-13T14:03:17.009Z,23.31
2022-09-13T14:06:13.709Z,23.88
2022-09-13T14:08:43.664Z,23.37
2022-09-13T14:11:49.585Z,23.92
2022-09-13T14:14:28.503Z,24.06
2022-09-13T14:17:44.979Z,24.09
2022-09-13T14:20:18.393Z,24.10
2022-09-13T14:22:45.583Z,23.40
2022-09-13T14:25:25.604Z,23.86
2022-09-13T14:27:59.311Z,23.66
2022-09-13T14:30:38.208Z,23.84
2022-09-13T14:33:06.065Z,23.77
2022-09-13T14:35:40.499Z,23.80
2022-09-13T14:38:37.271Z,23.87
2022-09-13T14:41:20.389Z,23.78
2022-09-13T14:43:49.466Z,23.74
2022-09-13T14:46:26.832Z,23.74
2022-09-13T14:49:03.016Z,23.60
2022-09-13T14:51:46.557Z,23.57
2022-09-13T14:54:44.022Z,23.38
2022-09-13T14:57:28.812Z,22.82
2022-09-13T15:00:28.376Z,22.74
2022-09-13T15:03:04.999Z,23.07
2022-09-13T15:05:35.801Z,22.99
2022-09-13T15:08:34.622Z,23.21
2022-09-13T15:11:06.229Z,23.17
2022-09-13T15:13:34.774Z,22.85
2022-09-13T15:16:01.991Z,23.03
2022-09-13T15:18:36.437Z,23.13
2022-09-13T15:21:17.290Z,23.07
2022-09-13T15:23:50.914Z,23.01
2022-09-13T15:26:23.994Z,23.05
2022-09-13T15:29:03.797Z,22.85
2022-09-13T15:31:34.696Z,22.88
2022-09-13T15:34:24.012Z,22.98
2022-09-13T15:37:15.179Z,23.00
2022-09-13T15:40:18.821Z,22.99
2022-09-13T15:42:51.359Z,22.83
2022-09-13T15:45:21.370Z,22.91
2022-09-13T15:47:51.784Z,22.86
2022-09-13T15:50:38.602Z,22.86
2022-09-13T15:53:12.410Z,22.65
2022-09-13T15:55:40.607Z,22.84
2022-09-13T15:58:10.115Z,22.72
2022-09-13T16:00:37.166Z,22.85
2022-09-13T16:03:04.309Z,22.86
2022-09-13T16:05:31.212Z,22.70
2022-09-13T16:07:59.019Z,22.80
2022-09-13T16:10:26.022Z,22.66
2022-09-13T16:12:52.978Z,22.39
2022-09-13T16:15:20.218Z,22.14
2022-09-13T16:17:47.657Z,22.80
2022-09-13T16:20:16.472Z,22.78
2022-09-13T16:22:43.479Z,22.68
2022-09-13T16:25:13.550Z,22.73
2022-09-13T16:27:42.842Z,22.73
2022-09-13T16:30:17.028Z,22.78
2022-09-13T16:32:44.622Z,22.57
2022-09-13T16:35:13.297Z,22.71
2022-09-13T16:37:41.430Z,22.64
2022-09-13T16:40:10.278Z,22.65
2022-09-13T16:42:37.749Z,22.56
2022-09-13T16:45:05.364Z,22.48
2022-09-13T16:47:32.400Z,22.46
2022-09-13T16:49:59.686Z,22.28
2022-09-13T16:52:27.971Z,22.36
2022-09-13T16:54:55.831Z,22.31
2022-09-13T16:57:24.078Z,22.28
2022-09-13T16:59:52.699Z,22.28
2022-09-13T17:02:21.156Z,22.34
2022-09-13T17:04:48.458Z,22.26
2022-09-13T17:07:15.400Z,22.19
2022-09-13T17:09:43.128Z,22.16
2022-09-13T17:12:13.821Z,22.12
2022-09-13T17:14:50.134Z,22.15
2022-09-13T17:17:18.021Z,22.09
2022-09-13T17:19:45.985Z,22.09
2022-09-13T17:22:13.728Z,22.08
2022-09-13T17:24:41.622Z,22.03
2022-09-13T17:27:09.494Z,21.96
2022-09-13T17:29:37.185Z,21.92
2022-09-13T17:32:06.245Z,21.89
2022-09-13T17:34:35.602Z,21.75
2022-09-13T17:37:03.722Z,21.81
2022-09-13T17:39:32.139Z,21.79
2022-09-13T17:41:59.159Z,21.57
2022-09-13T17:44:26.534Z,21.72
2022-09-13T17:46:54.283Z,21.67
2022-09-13T17:49:22.166Z,21.62
2022-09-13T17:51:49.980Z,21.53
2022-09-13T17:54:17.107Z,21.28
2022-09-13T17:56:45.328Z,21.41
2022-09-13T17:59:12.595Z,21.32
2022-09-13T18:01:42.795Z,21.27
2022-09-13T18:04:11.332Z,21.17
2022-09-13T18:06:45.800Z,21.08
2022-09-13T18:09:15.896Z,20.96
2022-09-13T18:11:43.712Z,20.86
2022-09-13T18:14:16.297Z,20.85
2022-09-13T18:16:44.807Z,20.72
2022-09-13T18:19:12.575Z,20.65
2022-09-13T18:21:40.158Z,20.59
2022-09-13T18:24:07.882Z,20.56
2022-09-13T18:26:35.898Z,20.43
2022-09-13T18:29:07.553Z,20.34
2022-09-13T18:31:35.895Z,20.26
2022-09-13T18:34:06.079Z,20.29
2022-09-13T18:36:35.115Z,20.28
2022-09-13T18:39:04.471Z,20.30
2022-09-13T18:41:40.287Z,20.31
2022-09-13T18:44:10.278Z,20.27
2022-09-13T18:46:39.474Z,20.27
2022-09-13T18:49:07.737Z,20.20
2022-09-13T18:51:38.462Z,20.18
2022-09-13T18:54:08.405Z,20.20
2022-09-13T18:56:35.898Z,20.14
2022-09-13T18:59:06.454Z,20.16
2022-09-13T19:01:41.090Z,20.20
2022-09-13T19:04:16.467Z,20.19
2022-09-13T19:06:55.788Z,20.21
2022-09-13T19:09:23.265Z,20.09
2022-09-13T19:11:53.222Z,20.17
2022-09-13T19:14:27.618Z,20.11
2022-09-13T19:16:57.743Z,19.99
2022-09-13T19:19:25.215Z,19.99
2022-09-13T19:21:52.741Z,19.92
2022-09-13T19:24:21.032Z,19.81
2022-09-13T19:26:51.645Z,19.76
2022-09-13T19:29:22.819Z,19.65
2022-09-13T19:31:52.534Z,19.56
2022-09-13T19:34:22.367Z,19.49
2022-09-13T19:36:53.492Z,19.39
2022-09-13T19:39:20.422Z,19.39
2022-09-13T19:41:47.375Z,19.26
2022-09-13T19:44:14.851Z,19.29
2022-09-13T19:46:43.621Z,19.22
2022-09-13T19:49:16.884Z,19.23
2022-09-13T19:51:51.357Z,19.40
2022-09-13T19:54:20.531Z,19.45
2022-09-13T19:56:47.793Z,19.42
2022-09-13T19:59:19.615Z,19.42
2022-09-13T20:01:47.783Z,19.44
2022-09-13T20:04:18.960Z,19.43
2022-09-13T20:06:49.877Z,19.39
2022-09-13T20:09:20.413Z,19.37
2022-09-13T20:11:48.985Z,19.43
2022-09-13T20:14:20.166Z,19.40
2022-09-13T20:16:48.081Z,19.34
2022-09-13T20:22:08.837Z,19.20
2022-09-13T20:24:36.717Z,19.19
2022-09-13T20:27:04.237Z,19.11
2022-09-13T20:29:31.800Z,19.03
2022-09-13T20:31:59.802Z,18.97
2022-09-13T20:34:27.936Z,18.85
2022-09-13T20:36:55.300Z,18.80
2022-09-13T20:39:22.763Z,18.74
2022-09-13T20:41:50.245Z,18.66
2022-09-13T20:44:17.846Z,18.60
2022-09-13T20:46:45.483Z,18.56
2022-09-13T20:49:13.093Z,18.46
2022-09-13T20:51:40.466Z,18.37
2022-09-13T20:54:08.334Z,18.33
2022-09-13T20:56:36.105Z,18.30
2022-09-13T20:59:04.307Z,18.28
2022-09-13T21:01:32.579Z,18.27
2022-09-13T21:04:00.494Z,18.26
2022-09-13T21:06:30.157Z,18.23
2022-09-13T21:08:59.877Z,18.14
2022-09-13T21:11:33.103Z,18.10
2022-09-13T21:14:05.917Z,18.05
2022-09-13T21:16:36.686Z,17.93
2022-09-13T21:19:04.790Z,17.90
2022-09-13T21:21:34.632Z,17.88
2022-09-13T21:24:05.892Z,17.86
2022-09-13T21:26:33.596Z,17.78
2022-09-13T21:29:01.314Z,17.76
2022-09-13T21:31:30.592Z,17.73
2022-09-13T21:34:00.952Z,17.71
2022-09-13T21:36:30.311Z,17.71
2022-09-13T21:38:58.394Z,17.68
2022-09-13T21:41:28.256Z,17.62
2022-09-13T21:43:55.605Z,17.63
2022-09-13T21:46:25.470Z,17.66
2022-09-13T21:49:08.048Z,17.59
2022-09-13T21:51:38.465Z,17.51
2022-09-13T21:54:09.132Z,17.47
2022-09-13T21:56:38.905Z,17.46
2022-09-13T21:59:11.728Z,17.42
2022-09-13T22:01:41.543Z,17.43
2022-09-13T22:04:13.168Z,17.46
2022-09-13T22:06:40.547Z,17.47
2022-09-13T22:09:10.709Z,17.49
2022-09-13T22:11:41.420Z,17.49
2022-09-13T22:14:11.597Z,17.50
2022-09-13T22:16:40.735Z,17.49
2022-09-13T22:19:28.124Z,17.48
2022-09-13T22:21:59.102Z,17.44
2022-09-13T22:24:29.481Z,17.42
2022-09-13T22:26:58.164Z,17.38
2022-09-13T22:29:26.112Z,17.40
2022-09-13T22:31:53.737Z,17.39
2022-09-13T22:34:24.012Z,17.37
2022-09-13T22:36:53.263Z,17.29
2022-09-13T22:39:20.853Z,17.27
2022-09-13T22:41:48.499Z,17.21
2022-09-13T22:44:15.918Z,17.18
2022-09-13T22:46:45.717Z,17.16
2022-09-13T22:49:15.120Z,17.14
2022-09-13T22:51:45.157Z,17.09
2022-09-13T22:54:13.481Z,17.10
2022-09-13T22:56:41.116Z,16.75
2022-09-13T22:59:14.775Z,16.94
2022-09-13T23:01:42.798Z,16.80
2022-09-13T23:04:09.991Z,17.00
2022-09-13T23:06:37.210Z,16.96
2022-09-13T23:09:07.513Z,16.67
2022-09-13T23:11:38.271Z,16.76
2022-09-13T23:14:14.538Z,16.94
2022-09-13T23:16:48.968Z,16.90
2022-09-13T23:19:18.772Z,16.81
2022-09-13T23:21:45.768Z,17.00
2022-09-13T23:24:18.147Z,17.12
2022-09-13T23:26:46.628Z,17.00
2022-09-13T23:29:18.237Z,16.92
2022-09-13T23:31:47.120Z,16.47
2022-09-13T23:34:15.171Z,16.78
2022-09-13T23:36:44.442Z,16.78
2022-09-13T23:39:17.094Z,16.73
2022-09-13T23:41:46.407Z,16.72
2022-09-13T23:44:14.002Z,16.70
2022-09-13T23:46:41.626Z,16.50
2022-09-13T23:49:08.702Z,16.30
2022-09-13T23:51:35.777Z,16.48
2022-09-13T23:54:03.141Z,16.67
2022-09-13T23:56:32.241Z,16.26
2022-09-13T23:59:02.253Z,16.70
